createdAt,value
2017-12-26T00:01:19.332Z,4.33
2017-12-26T00:03:48.200Z,4.10
2017-12-26T00:06:17.065Z,3.50
2017-12-26T00:08:45.926Z,4.43
2017-12-26T00:11:14.771Z,3.93
2017-12-26T00:13:43.635Z,5.20
2017-12-26T00:16:12.498Z,4.37
2017-12-26T00:18:41.382Z,4.23
2017-12-26T00:21:10.340Z,3.87
2017-12-26T00:23:39.195Z,4.30
2017-12-26T00:26:08.105Z,3.90
2017-12-26T00:28:36.978Z,5.00
2017-12-26T00:31:05.865Z,3.87
2017-12-26T00:33:34.723Z,5.43
2017-12-26T00:36:03.733Z,4.07
2017-12-26T00:38:32.664Z,4.37
2017-12-26T00:41:01.661Z,4.27
2017-12-26T00:43:30.648Z,4.47
2017-12-26T00:45:59.763Z,4.80
2017-12-26T00:48:28.656Z,4.90
2017-12-26T00:50:57.724Z,4.13
2017-12-26T00:53:26.587Z,5.33
2017-12-26T00:55:55.448Z,4.70
2017-12-26T00:58:24.347Z,4.90
2017-12-26T01:00:53.202Z,4.30
2017-12-26T01:03:22.057Z,4.13
2017-12-26T01:05:50.932Z,5.10
2017-12-26T01:08:19.777Z,5.10
2017-12-26T01:10:48.640Z,4.67
2017-12-26T01:13:17.499Z,4.30
2017-12-26T01:15:46.368Z,4.73
2017-12-26T01:18:15.231Z,5.10
2017-12-26T01:20:44.092Z,5.57
2017-12-26T01:23:12.941Z,4.80
2017-12-26T01:25:41.811Z,4.63
2017-12-26T01:28:10.678Z,5.00
2017-12-26T01:30:39.536Z,5.20
2017-12-26T01:33:08.388Z,5.00
2017-12-26T01:35:37.260Z,5.57
2017-12-26T01:38:06.117Z,3.80
2017-12-26T01:40:34.983Z,5.60
2017-12-26T01:43:03.920Z,5.33
2017-12-26T01:45:32.887Z,5.40
2017-12-26T01:48:01.744Z,4.90
2017-12-26T01:50:30.595Z,5.13
2017-12-26T01:52:59.464Z,4.73
2017-12-26T01:55:28.347Z,5.40
2017-12-26T01:57:57.202Z,5.27
2017-12-26T02:00:26.056Z,4.77
2017-12-26T02:02:54.920Z,4.73
2017-12-26T02:05:23.815Z,5.63
2017-12-26T02:07:52.657Z,4.30
2017-12-26T02:10:21.505Z,4.53
2017-12-26T02:12:50.360Z,4.87
2017-12-26T02:15:19.217Z,4.90
2017-12-26T02:17:48.112Z,5.10
2017-12-26T02:20:17.115Z,5.00
2017-12-26T02:22:46.058Z,4.87
2017-12-26T02:25:15.166Z,5.70
2017-12-26T02:27:44.079Z,4.60
2017-12-26T02:30:13.139Z,5.47
2017-12-26T02:32:41.989Z,6.23
2017-12-26T02:35:10.893Z,5.40
2017-12-26T02:37:39.753Z,4.73
2017-12-26T02:40:08.605Z,4.60
2017-12-26T02:42:37.467Z,4.60
2017-12-26T02:45:06.322Z,5.33
2017-12-26T02:47:35.197Z,4.87
2017-12-26T02:50:04.055Z,6.63
2017-12-26T02:52:32.936Z,5.37
2017-12-26T02:55:01.800Z,4.93
2017-12-26T02:57:30.696Z,4.80
2017-12-26T02:59:59.548Z,4.93
2017-12-26T03:02:28.408Z,5.17
2017-12-26T03:04:57.372Z,5.27
2017-12-26T03:07:26.240Z,5.73
2017-12-26T03:09:55.104Z,5.97
2017-12-26T03:12:23.984Z,4.95
2017-12-26T03:14:52.840Z,5.23
2017-12-26T03:17:21.696Z,5.37
2017-12-26T03:19:50.559Z,5.33
2017-12-26T03:22:19.419Z,5.57
2017-12-26T03:24:48.296Z,4.80
2017-12-26T03:27:17.173Z,9.10
2017-12-26T03:29:46.142Z,5.03
2017-12-26T03:32:15.180Z,5.20
2017-12-26T03:34:44.268Z,5.33
2017-12-26T03:37:13.482Z,5.30
2017-12-26T03:39:42.525Z,5.00
2017-12-26T03:42:11.497Z,6.10
2017-12-26T03:44:41.068Z,5.53
2017-12-26T03:47:09.948Z,5.70
2017-12-26T03:49:38.828Z,5.40
2017-12-26T03:52:07.688Z,6.03
2017-12-26T03:54:36.552Z,5.93
2017-12-26T03:57:05.413Z,5.77
2017-12-26T03:59:34.382Z,5.77
2017-12-26T04:02:03.241Z,6.10
2017-12-26T04:04:32.108Z,5.60
2017-12-26T04:07:00.976Z,5.00
2017-12-26T04:09:29.856Z,5.82
2017-12-26T04:11:58.708Z,6.40
2017-12-26T04:14:27.555Z,6.90
2017-12-26T04:16:56.432Z,5.20
2017-12-26T04:19:25.293Z,6.03
2017-12-26T04:21:54.435Z,5.47
2017-12-26T04:24:23.306Z,5.50
2017-12-26T04:26:52.168Z,7.00
2017-12-26T04:29:21.044Z,7.27
2017-12-26T04:31:49.927Z,7.00
2017-12-26T04:34:18.780Z,7.50
2017-12-26T04:36:47.640Z,5.47
2017-12-26T04:39:16.534Z,6.13
2017-12-26T04:41:45.454Z,6.00
2017-12-26T04:44:14.354Z,5.60
2017-12-26T04:46:43.298Z,7.30
2017-12-26T04:49:12.248Z,6.40
2017-12-26T04:51:41.306Z,7.53
2017-12-26T04:54:10.300Z,5.63
2017-12-26T04:56:39.204Z,5.53
2017-12-26T04:59:08.061Z,6.47
2017-12-26T05:01:36.925Z,6.70
2017-12-26T05:04:05.850Z,6.20
2017-12-26T05:06:34.737Z,6.20
2017-12-26T05:09:03.601Z,6.80
2017-12-26T05:11:32.452Z,6.73
2017-12-26T05:14:01.323Z,6.60
2017-12-26T05:16:30.188Z,5.80
2017-12-26T05:18:59.056Z,6.00
2017-12-26T05:21:27.964Z,6.27
2017-12-26T05:23:56.832Z,5.40
2017-12-26T05:26:25.696Z,6.15
2017-12-26T05:28:54.564Z,7.90
2017-12-26T05:31:23.418Z,7.23
2017-12-26T05:33:52.280Z,6.07
2017-12-26T05:36:21.144Z,6.03
2017-12-26T05:38:50.008Z,6.50
2017-12-26T05:41:18.879Z,6.17
2017-12-26T05:43:47.776Z,5.47
2017-12-26T05:46:16.632Z,6.00
2017-12-26T05:48:45.507Z,6.70
2017-12-26T05:51:14.371Z,6.00
2017-12-26T05:53:43.257Z,6.27
2017-12-26T05:56:12.173Z,6.83
2017-12-26T05:58:41.125Z,5.67
2017-12-26T06:01:10.093Z,6.23
2017-12-26T06:03:39.011Z,6.13
2017-12-26T06:06:08.000Z,5.43
2017-12-26T06:08:37.009Z,6.30
2017-12-26T06:11:05.870Z,5.60
2017-12-26T06:13:34.735Z,5.80
2017-12-26T06:16:03.641Z,5.63
2017-12-26T06:18:32.499Z,5.20
2017-12-26T06:21:01.408Z,6.10
2017-12-26T06:23:30.272Z,6.03
2017-12-26T06:25:59.156Z,6.40
2017-12-26T06:28:28.027Z,5.07
2017-12-26T06:30:56.875Z,5.03
2017-12-26T06:33:25.756Z,5.50
2017-12-26T06:35:54.608Z,5.30
2017-12-26T06:38:23.464Z,4.77
2017-12-26T06:40:52.328Z,5.50
2017-12-26T06:43:21.204Z,6.40
2017-12-26T06:45:50.072Z,6.27
2017-12-26T06:48:18.932Z,5.00
2017-12-26T06:50:47.796Z,4.87
2017-12-26T06:53:16.669Z,5.53
2017-12-26T06:55:45.527Z,5.53
2017-12-26T06:58:14.393Z,4.77
2017-12-26T07:00:43.252Z,5.43
2017-12-26T07:03:12.104Z,5.33
2017-12-26T07:05:40.986Z,5.17
2017-12-26T07:08:09.849Z,4.77
2017-12-26T07:10:38.718Z,4.97
2017-12-26T07:13:07.564Z,5.23
2017-12-26T07:15:36.457Z,5.37
2017-12-26T07:18:05.370Z,6.43
2017-12-26T07:20:40.028Z,4.82
2017-12-26T07:23:08.888Z,5.40
2017-12-26T07:25:37.759Z,5.57
2017-12-26T07:28:06.610Z,5.77
2017-12-26T07:30:35.518Z,4.43
2017-12-26T07:33:04.487Z,5.13
2017-12-26T07:35:33.416Z,5.70
2017-12-26T07:38:02.460Z,5.60
2017-12-26T07:40:31.489Z,4.60
2017-12-26T07:43:00.476Z,5.00
2017-12-26T07:45:29.523Z,4.90
2017-12-26T07:47:58.416Z,4.63
2017-12-26T07:50:27.253Z,4.10
2017-12-26T07:52:56.349Z,4.40
2017-12-26T07:55:25.232Z,4.60
2017-12-26T07:57:54.168Z,4.40
2017-12-26T08:00:23.051Z,4.90
2017-12-26T08:02:51.940Z,4.43
2017-12-26T08:05:20.808Z,4.47
2017-12-26T08:07:49.727Z,5.10
2017-12-26T08:10:18.580Z,4.40
2017-12-26T08:12:47.455Z,4.93
2017-12-26T08:15:16.322Z,4.97
2017-12-26T08:17:45.177Z,4.50
2017-12-26T08:20:14.028Z,4.47
2017-12-26T08:22:42.905Z,4.20
2017-12-26T08:25:11.765Z,4.57
2017-12-26T08:27:40.625Z,4.67
2017-12-26T08:30:09.483Z,5.27
2017-12-26T08:32:38.340Z,4.40
2017-12-26T08:35:07.203Z,4.90
2017-12-26T08:37:36.071Z,4.43
2017-12-26T08:40:04.968Z,4.28
2017-12-26T08:42:33.825Z,3.90
2017-12-26T08:45:02.689Z,4.70
2017-12-26T08:47:31.559Z,4.63
2017-12-26T08:50:00.473Z,4.23
2017-12-26T08:52:29.466Z,4.18
2017-12-26T08:54:58.399Z,4.73
2017-12-26T08:57:27.396Z,4.33
2017-12-26T08:59:56.302Z,3.63
2017-12-26T09:02:25.380Z,4.77
2017-12-26T09:04:54.428Z,4.23
2017-12-26T09:07:23.297Z,4.97
2017-12-26T09:09:52.175Z,4.43
2017-12-26T09:12:21.052Z,4.00
2017-12-26T09:14:49.896Z,3.70
2017-12-26T09:17:18.780Z,4.60
2017-12-26T09:19:47.632Z,4.53
2017-12-26T09:22:16.499Z,4.20
2017-12-26T09:24:45.360Z,3.90
2017-12-26T09:27:14.337Z,4.60
2017-12-26T09:29:43.210Z,4.70
2017-12-26T09:32:12.054Z,4.33
2017-12-26T09:34:40.926Z,4.10
2017-12-26T09:37:09.785Z,3.60
2017-12-26T09:39:38.657Z,4.00
2017-12-26T09:42:07.504Z,4.63
2017-12-26T09:44:36.372Z,4.25
2017-12-26T09:47:06.124Z,4.33
2017-12-26T09:49:35.012Z,3.93
2017-12-26T09:52:03.932Z,4.10
2017-12-26T09:54:32.831Z,3.83
2017-12-26T09:57:01.853Z,4.00
2017-12-26T09:59:31.073Z,3.60
2017-12-26T10:02:00.226Z,4.40
2017-12-26T10:04:29.311Z,3.90
2017-12-26T10:06:58.497Z,3.40
2017-12-26T10:09:27.380Z,3.93
2017-12-26T10:11:56.301Z,3.65
2017-12-26T10:14:25.349Z,3.93
2017-12-26T10:16:54.227Z,3.70
2017-12-26T10:19:23.085Z,3.73
2017-12-26T10:21:51.934Z,3.40
2017-12-26T10:24:20.813Z,3.80
2017-12-26T10:26:49.720Z,4.30
2017-12-26T10:29:18.588Z,3.70
2017-12-26T10:31:47.461Z,3.57
2017-12-26T10:34:16.340Z,3.87
2017-12-26T10:36:45.203Z,3.10
2017-12-26T10:39:14.089Z,3.97
2017-12-26T10:41:42.977Z,3.60
2017-12-26T10:44:11.849Z,4.00
2017-12-26T10:46:40.728Z,3.40
2017-12-26T10:49:09.597Z,4.13
2017-12-26T10:51:38.464Z,5.15
2017-12-26T10:54:07.330Z,3.50
2017-12-26T10:56:36.208Z,3.70
2017-12-26T10:59:05.082Z,3.80
2017-12-26T11:01:33.943Z,3.53
2017-12-26T11:04:02.816Z,4.10
2017-12-26T11:06:31.779Z,3.85
2017-12-26T11:09:00.704Z,3.40
2017-12-26T11:11:29.654Z,6.40
2017-12-26T11:13:58.644Z,3.37
2017-12-26T11:16:27.575Z,3.70
2017-12-26T11:18:56.552Z,3.70
2017-12-26T11:21:25.556Z,3.33
2017-12-26T11:23:54.445Z,3.53
2017-12-26T11:26:23.373Z,4.07
2017-12-26T11:28:52.242Z,3.10
2017-12-26T11:31:21.105Z,3.73
2017-12-26T11:33:49.977Z,3.83
2017-12-26T11:36:18.851Z,4.05
2017-12-26T11:38:47.735Z,3.87
2017-12-26T11:41:16.617Z,3.78
2017-12-26T11:43:45.491Z,3.70
2017-12-26T11:46:14.343Z,3.60
2017-12-26T11:48:43.196Z,3.80
2017-12-26T11:51:12.072Z,3.80
2017-12-26T11:53:40.945Z,4.03
2017-12-26T11:56:09.821Z,4.40
2017-12-26T11:58:38.688Z,4.10
2017-12-26T12:01:07.571Z,4.50
2017-12-26T12:03:36.437Z,5.37
2017-12-26T12:06:05.305Z,3.73
2017-12-26T12:08:34.174Z,4.17
2017-12-26T12:11:03.052Z,4.07
2017-12-26T12:13:31.916Z,5.80
2017-12-26T12:16:00.900Z,3.23
2017-12-26T12:18:29.799Z,3.47
2017-12-26T12:20:58.665Z,3.67
2017-12-26T12:23:27.544Z,4.60
2017-12-26T12:25:56.455Z,3.40
2017-12-26T12:28:25.420Z,3.65
2017-12-26T12:30:54.400Z,3.33
2017-12-26T12:33:23.302Z,3.58
2017-12-26T12:35:52.241Z,4.07
2017-12-26T12:38:21.172Z,3.60
2017-12-26T12:40:50.217Z,4.70
2017-12-26T12:43:19.100Z,5.35
2017-12-26T12:45:47.973Z,3.47
2017-12-26T12:48:16.843Z,3.47
2017-12-26T12:50:45.709Z,3.17
2017-12-26T12:53:14.671Z,3.00
2017-12-26T12:55:43.533Z,3.00
2017-12-26T12:58:12.405Z,2.50
2017-12-26T13:00:41.274Z,2.70
2017-12-26T13:03:10.157Z,2.80
2017-12-26T13:05:39.022Z,2.87
2017-12-26T13:08:07.892Z,2.60
2017-12-26T13:10:36.775Z,2.70
2017-12-26T13:13:05.649Z,2.65
2017-12-26T13:15:34.512Z,2.37
2017-12-26T13:18:03.375Z,2.33
2017-12-26T13:20:32.287Z,2.55
2017-12-26T13:23:01.138Z,2.28
2017-12-26T13:25:30.113Z,2.50
2017-12-26T13:27:58.968Z,2.13
2017-12-26T13:30:27.841Z,2.10
2017-12-26T13:32:56.729Z,2.03
2017-12-26T13:35:25.580Z,2.30
2017-12-26T13:37:54.465Z,1.83
2017-12-26T13:40:23.328Z,1.60
2017-12-26T13:42:52.211Z,1.97
2017-12-26T13:45:21.096Z,1.50
2017-12-26T13:47:49.961Z,1.60
2017-12-26T13:50:18.952Z,1.90
2017-12-26T13:52:47.999Z,1.97
2017-12-26T13:55:17.928Z,1.67
2017-12-26T13:57:47.031Z,1.87
2017-12-26T14:00:15.996Z,2.12
2017-12-26T14:02:44.984Z,1.83
2017-12-26T14:05:13.939Z,2.00
2017-12-26T14:07:42.796Z,1.37
2017-12-26T14:10:11.674Z,1.90
2017-12-26T14:12:40.540Z,1.50
2017-12-26T14:15:09.405Z,2.10
2017-12-26T14:17:38.275Z,1.70
2017-12-26T14:20:07.220Z,2.10
2017-12-26T14:22:36.092Z,1.57
2017-12-26T14:25:04.964Z,1.80
2017-12-26T14:27:33.832Z,1.60
2017-12-26T14:30:02.717Z,1.50
2017-12-26T14:32:31.588Z,1.60
2017-12-26T14:35:00.482Z,2.10
2017-12-26T14:37:29.346Z,1.30
2017-12-26T14:39:58.204Z,1.40
2017-12-26T14:42:27.093Z,1.30
2017-12-26T14:44:56.214Z,1.50
2017-12-26T14:47:25.065Z,1.23
2017-12-26T14:49:53.926Z,1.50
2017-12-26T14:52:22.821Z,1.40
2017-12-26T14:54:51.692Z,1.40
2017-12-26T14:57:20.671Z,1.43
2017-12-26T14:59:49.676Z,1.27
2017-12-26T15:02:18.608Z,1.35
2017-12-26T15:04:47.521Z,1.87
2017-12-26T15:07:16.559Z,1.40
2017-12-26T15:09:45.619Z,1.43
2017-12-26T15:12:14.671Z,1.30
2017-12-26T15:14:43.560Z,1.33
2017-12-26T15:17:12.452Z,1.57
2017-12-26T15:19:41.505Z,1.60
2017-12-26T15:22:10.379Z,1.37
2017-12-26T15:24:39.247Z,1.13
2017-12-26T15:27:08.137Z,1.12
2017-12-26T15:29:36.992Z,1.93
2017-12-26T15:32:05.874Z,1.10
2017-12-26T15:34:34.740Z,1.50
2017-12-26T15:37:03.606Z,2.05
2017-12-26T15:39:32.492Z,1.10
2017-12-26T15:42:01.352Z,1.90
2017-12-26T15:44:30.227Z,1.27
2017-12-26T15:46:59.110Z,1.05
2017-12-26T15:49:27.979Z,1.70
2017-12-26T15:51:56.852Z,2.03
2017-12-26T15:54:25.707Z,1.42
2017-12-26T15:56:54.576Z,1.37
2017-12-26T15:59:23.448Z,1.42
2017-12-26T16:01:52.316Z,1.10
2017-12-26T16:04:21.226Z,1.35
2017-12-26T16:06:50.105Z,1.30
2017-12-26T16:09:18.968Z,1.62
2017-12-26T16:11:47.879Z,1.00
2017-12-26T16:14:16.740Z,1.00
2017-12-26T16:16:45.615Z,1.10
2017-12-26T16:19:14.481Z,1.47
2017-12-26T16:21:43.344Z,1.12
2017-12-26T16:24:12.210Z,1.10
2017-12-26T16:26:41.122Z,1.65
2017-12-26T16:29:09.988Z,1.13
2017-12-26T16:31:38.883Z,1.98
2017-12-26T16:34:07.800Z,1.85
2017-12-26T16:36:36.692Z,1.37
2017-12-26T16:39:05.721Z,1.10
2017-12-26T16:41:34.664Z,1.10
2017-12-26T16:44:03.560Z,1.30
2017-12-26T16:46:32.475Z,1.00
2017-12-26T16:49:01.378Z,1.52
2017-12-26T16:51:30.371Z,1.07
2017-12-26T16:53:59.357Z,1.33
2017-12-26T16:56:28.227Z,0.93
2017-12-26T16:58:57.337Z,1.00
2017-12-26T17:01:26.219Z,1.00
2017-12-26T17:03:55.091Z,1.05
2017-12-26T17:06:23.961Z,1.60
2017-12-26T17:08:52.844Z,0.90
2017-12-26T17:11:21.719Z,0.90
2017-12-26T17:13:50.590Z,1.30
2017-12-26T17:16:19.449Z,2.60
2017-12-26T17:18:48.313Z,1.20
2017-12-26T17:21:17.192Z,1.23
2017-12-26T17:23:46.066Z,1.00
2017-12-26T17:26:14.957Z,1.20
2017-12-26T17:28:43.824Z,1.30
2017-12-26T17:31:12.719Z,1.55
2017-12-26T17:33:41.597Z,1.50
2017-12-26T17:36:10.459Z,1.10
2017-12-26T17:38:39.338Z,1.10
2017-12-26T17:41:08.208Z,1.23
2017-12-26T17:43:37.074Z,1.27
2017-12-26T17:46:05.945Z,1.90
2017-12-26T17:48:34.800Z,1.07
2017-12-26T17:51:03.653Z,1.87
2017-12-26T17:53:32.584Z,3.00
2017-12-26T17:56:01.472Z,1.02
2017-12-26T17:58:30.342Z,1.35
2017-12-26T18:00:59.224Z,2.03
2017-12-26T18:03:28.145Z,1.50
2017-12-26T18:05:57.023Z,0.90
2017-12-26T18:08:25.904Z,1.27
2017-12-26T18:10:54.780Z,1.27
2017-12-26T18:13:23.640Z,1.43
2017-12-26T18:15:52.613Z,1.30
2017-12-26T18:18:21.572Z,1.23
2017-12-26T18:20:50.573Z,3.03
2017-12-26T18:23:19.456Z,2.00
2017-12-26T18:25:48.587Z,1.77
2017-12-26T18:28:18.442Z,1.30
2017-12-26T18:30:47.299Z,1.27
2017-12-26T18:33:17.173Z,1.63
2017-12-26T18:35:46.031Z,1.10
2017-12-26T18:38:14.910Z,1.33
2017-12-26T18:40:43.781Z,1.53
2017-12-26T18:43:12.654Z,1.50
2017-12-26T18:45:41.516Z,1.10
2017-12-26T18:48:10.372Z,1.20
2017-12-26T18:50:39.253Z,1.30
2017-12-26T18:53:08.123Z,2.10
2017-12-26T18:55:36.995Z,2.20
2017-12-26T18:58:05.889Z,1.85
2017-12-26T19:00:34.747Z,1.53
2017-12-26T19:03:03.609Z,1.73
2017-12-26T19:05:32.475Z,1.13
2017-12-26T19:08:01.346Z,1.20
2017-12-26T19:10:30.215Z,1.40
2017-12-26T19:12:59.095Z,1.27
2017-12-26T19:15:27.958Z,1.33
2017-12-26T19:17:56.992Z,1.40
2017-12-26T19:20:25.967Z,1.20
2017-12-26T19:22:54.868Z,1.20
2017-12-26T19:25:23.849Z,1.30
2017-12-26T19:27:52.801Z,1.25
2017-12-26T19:30:21.751Z,1.43
2017-12-26T19:32:50.647Z,1.30
2017-12-26T19:35:19.588Z,0.80
2017-12-26T19:37:48.585Z,1.42
2017-12-26T19:40:17.536Z,1.20
2017-12-26T19:42:46.475Z,1.07
2017-12-26T19:45:15.368Z,1.58
2017-12-26T19:47:44.236Z,1.43
2017-12-26T19:50:13.094Z,1.67
2017-12-26T19:52:41.984Z,2.73
2017-12-26T19:55:10.861Z,1.40
2017-12-26T19:57:39.717Z,1.37
2017-12-26T20:00:08.590Z,1.90
2017-12-26T20:02:37.459Z,1.05
2017-12-26T20:05:06.340Z,1.25
2017-12-26T20:07:35.215Z,1.27
2017-12-26T20:10:04.095Z,1.00
2017-12-26T20:12:32.970Z,1.10
2017-12-26T20:15:01.847Z,1.67
2017-12-26T20:17:30.715Z,1.20
2017-12-26T20:19:59.575Z,1.50
2017-12-26T20:22:28.462Z,1.40
2017-12-26T20:24:57.432Z,1.90
2017-12-26T20:27:26.312Z,1.45
2017-12-26T20:29:58.139Z,1.65
2017-12-26T20:32:26.989Z,2.12
2017-12-26T20:34:55.868Z,1.40
2017-12-26T20:37:24.737Z,1.37
2017-12-26T20:39:53.627Z,1.67
2017-12-26T20:42:22.536Z,1.40
2017-12-26T20:44:51.414Z,1.45
2017-12-26T20:47:20.278Z,1.60
2017-12-26T20:49:49.140Z,2.50
2017-12-26T20:52:18.008Z,2.47
2017-12-26T20:54:46.977Z,1.92
2017-12-26T20:57:15.847Z,1.55
2017-12-26T20:59:44.730Z,1.48
2017-12-26T21:02:13.621Z,1.35
2017-12-26T21:04:42.478Z,2.17
2017-12-26T21:07:11.419Z,1.45
2017-12-26T21:09:40.295Z,1.70
2017-12-26T21:12:09.177Z,1.93
2017-12-26T21:14:38.068Z,1.60
2017-12-26T21:17:06.931Z,1.77
2017-12-26T21:19:35.801Z,2.03
2017-12-26T21:22:04.680Z,3.40
2017-12-26T21:24:33.532Z,2.00
2017-12-26T21:27:02.399Z,2.87
2017-12-26T21:29:31.307Z,1.60
2017-12-26T21:32:00.171Z,1.52
2017-12-26T21:34:29.047Z,2.03
2017-12-26T21:36:57.998Z,1.60
2017-12-26T21:39:26.985Z,2.58
2017-12-26T21:41:56.117Z,1.90
2017-12-26T21:44:25.326Z,1.73
2017-12-26T21:46:54.331Z,1.67
2017-12-26T21:49:23.448Z,1.30
2017-12-26T21:51:52.429Z,1.77
2017-12-26T21:54:21.476Z,1.30
2017-12-26T21:56:50.347Z,1.73
2017-12-26T21:59:19.202Z,2.30
2017-12-26T22:01:48.076Z,2.37
2017-12-26T22:04:16.947Z,1.70
2017-12-26T22:06:45.820Z,1.67
2017-12-26T22:09:14.692Z,1.60
2017-12-26T22:11:43.559Z,1.40
2017-12-26T22:14:12.424Z,1.58
2017-12-26T22:16:41.289Z,1.70
2017-12-26T22:19:10.159Z,1.70
2017-12-26T22:21:39.027Z,1.75
2017-12-26T22:24:07.919Z,3.53
2017-12-26T22:26:36.792Z,1.40
2017-12-26T22:29:05.651Z,1.60
2017-12-26T22:31:34.533Z,2.03
2017-12-26T22:34:03.418Z,2.47
2017-12-26T22:36:32.275Z,2.37
2017-12-26T22:39:01.149Z,2.03
2017-12-26T22:41:30.012Z,1.53
2017-12-26T22:43:58.872Z,1.77
2017-12-26T22:46:27.752Z,1.55
2017-12-26T22:48:56.643Z,1.80
2017-12-26T22:51:25.541Z,1.50
2017-12-26T22:53:54.503Z,1.70
2017-12-26T22:56:23.475Z,1.50
2017-12-26T22:58:52.443Z,1.90
2017-12-26T23:01:21.362Z,2.53
2017-12-26T23:03:50.441Z,1.70
2017-12-26T23:06:19.454Z,2.43
2017-12-26T23:08:48.503Z,1.70
2017-12-26T23:11:17.347Z,1.60
2017-12-26T23:13:46.447Z,1.30
2017-12-26T23:16:21.107Z,3.65
2017-12-26T23:18:50.182Z,1.77
2017-12-26T23:21:19.107Z,2.05
2017-12-26T23:23:53.896Z,1.90
2017-12-26T23:26:28.760Z,1.77
2017-12-26T23:29:03.334Z,1.52
2017-12-26T23:31:37.770Z,2.10
2017-12-26T23:34:12.251Z,2.43
2017-12-26T23:36:46.903Z,2.00
2017-12-26T23:39:32.352Z,1.40
2017-12-26T23:42:06.903Z,1.90
2017-12-26T23:44:41.513Z,1.50
2017-12-26T23:47:16.304Z,1.75
2017-12-26T23:49:51.004Z,2.87
2017-12-26T23:52:25.788Z,1.70
2017-12-26T23:55:15.545Z,1.92
2017-12-26T23:57:49.988Z,1.70
